Time;durP1;ratioP1;P1;durP2;ratioP2;P2;SDS_P1;SDS_P2;PMS_P1;PMS_P2;Temp;Humidity;BMP_temperature;BMP_pressure;BME280_temperature;BME280_humidity;BME280_pressure;Samples;Min_cycle;Max_cycle;Signal;HPM_P1;HPM_P2
2021/09/05 00:01:17;;;;;;;;;31.75;27.00;;;;;24.97;48.52;101143.94;5064961;27;45564;-49
2021/09/05 00:03:43;;;;;;;;;26.75;25.50;;;;;24.98;48.16;101142.09;5061297;27;45468;-51
2021/09/05 00:06:08;;;;;;;;;30.50;27.00;;;;;24.96;48.04;101131.47;5067741;28;45965;-45
2021/09/05 00:08:34;;;;;;;;;26.50;26.50;;;;;24.98;48.45;101121.47;5058608;28;45801;-50
2021/09/05 00:10:59;;;;;;;;;29.00;26.75;;;;;24.98;48.44;101116.09;5059725;28;45381;-47
2021/09/05 00:13:24;;;;;;;;;28.50;26.50;;;;;24.98;48.45;101116.09;5059877;28;45310;-51
2021/09/05 00:15:50;;;;;;;;;35.50;29.50;;;;;24.98;48.40;101116.09;5059957;28;45443;-52
2021/09/05 00:18:15;;;;;;;;;28.75;25.75;;;;;24.97;48.34;101114.38;5059629;28;46347;-49
2021/09/05 00:20:40;;;;;;;;;28.00;26.75;;;;;24.97;48.27;101125.13;5059778;28;45249;-47
2021/09/05 00:23:06;;;;;;;;;29.25;28.00;;;;;24.97;48.56;101113.53;5059653;28;45421;-50
2021/09/05 00:25:31;;;;;;;;;26.75;25.75;;;;;24.96;48.49;101118.03;5059736;28;45433;-48
2021/09/05 00:27:58;;;;;;;;;28.75;27.75;;;;;24.96;48.43;101122.56;5059288;28;45150;-49
2021/09/05 00:30:24;;;;;;;;;25.00;21.75;;;;;24.95;48.39;101121.66;5059750;28;45190;-48
2021/09/05 00:32:49;;;;;;;;;29.25;25.75;;;;;24.92;48.27;101119.22;5059657;28;45368;-48
2021/09/05 00:35:14;;;;;;;;;30.00;25.75;;;;;24.93;48.55;101118.25;5066672;28;45458;-48
2021/09/05 00:37:40;;;;;;;;;31.75;29.25;;;;;24.91;48.58;101119.31;5059381;28;46201;-48
2021/09/05 00:40:06;;;;;;;;;25.00;25.00;;;;;24.89;48.67;101116.75;5059555;28;45306;-47
2021/09/05 00:42:32;;;;;;;;;25.25;23.00;;;;;24.88;48.78;101115.03;5069276;28;45338;-50
2021/09/05 00:44:57;;;;;;;;;26.75;25.50;;;;;24.89;48.60;101115.88;5078311;28;46130;-49
2021/09/05 00:47:22;;;;;;;;;27.50;24.25;;;;;24.87;48.76;101115.97;5079778;28;45334;-50
2021/09/05 00:49:48;;;;;;;;;23.75;22.50;;;;;24.83;48.39;101123.41;5079655;28;45278;-51
2021/09/05 00:52:15;;;;;;;;;31.50;23.50;;;;;24.82;48.69;101121.66;5079781;28;45381;-59
2021/09/05 00:54:42;;;;;;;;;22.25;21.75;;;;;24.82;48.79;101124.34;5078521;28;45462;-56
2021/09/05 00:57:12;;;;;;;;;24.00;24.00;;;;;24.81;48.79;101119.09;5079164;28;46094;-53
2021/09/05 00:59:39;;;;;;;;;20.25;20.25;;;;;24.82;48.52;101121.66;5079389;28;45385;-46
2021/09/05 01:02:05;;;;;;;;;26.25;24.25;;;;;24.81;48.39;101124.47;5079458;28;45323;-48
2021/09/05 01:04:30;;;;;;;;;23.00;22.75;;;;;24.80;48.60;101115.56;5061554;28;45361;-47
2021/09/05 01:06:55;;;;;;;;;22.25;20.50;;;;;24.79;48.66;101121.00;5059326;28;46115;-49
2021/09/05 01:09:21;;;;;;;;;19.75;19.00;;;;;24.79;48.43;101118.31;5059218;28;45261;-49
2021/09/05 01:11:46;;;;;;;;;23.00;22.75;;;;;24.77;48.98;101120.28;5059021;28;45806;-49
2021/09/05 01:14:11;;;;;;;;;24.00;21.00;;;;;24.78;48.33;101119.28;5059127;28;45220;-48
2021/09/05 01:16:40;;;;;;;;;24.00;24.00;;;;;24.76;48.66;101115.84;5059151;28;45222;-45
2021/09/05 01:19:12;;;;;;;;;28.25;25.75;;;;;24.75;48.47;101112.28;5073157;28;45570;-49
2021/09/05 01:21:38;;;;;;;;;23.75;22.00;;;;;24.75;48.91;101114.13;5068994;28;45328;-47
2021/09/05 01:24:05;;;;;;;;;26.50;23.50;;;;;24.74;48.38;101120.47;5060730;28;45510;-46
2021/09/05 01:26:32;;;;;;;;;26.50;26.50;;;;;24.73;49.01;101130.38;5073735;28;45252;-46
2021/09/05 01:28:58;;;;;;;;;21.25;20.25;;;;;24.72;48.31;101128.63;5082365;28;45362;-46
2021/09/05 01:31:25;;;;;;;;;23.50;23.50;;;;;24.71;48.87;101134.13;5082752;28;45260;-48
2021/09/05 01:33:51;;;;;;;;;25.25;23.25;;;;;24.69;48.54;101123.50;5082607;28;45476;-49
2021/09/05 01:36:16;;;;;;;;;25.25;25.25;;;;;24.71;48.51;101131.44;5064347;28;48332;-48
2021/09/05 01:38:42;;;;;;;;;24.50;23.50;;;;;24.70;48.68;101127.03;5071527;28;45359;-47
2021/09/05 01:41:07;;;;;;;;;24.00;22.00;;;;;24.68;48.53;101129.81;5062237;28;45233;-50
2021/09/05 01:43:33;;;;;;;;;20.75;20.75;;;;;24.67;48.86;101134.31;5080319;28;45604;-49
2021/09/05 01:45:58;;;;;;;;;24.75;21.00;;;;;24.66;48.77;101135.28;5082343;28;46298;-47
2021/09/05 01:48:24;;;;;;;;;26.00;25.75;;;;;24.66;48.66;101127.22;5082334;28;45363;-50
2021/09/05 01:50:49;;;;;;;;;28.75;22.25;;;;;24.63;48.68;101129.25;5082490;28;45242;-46
2021/09/05 01:53:15;;;;;;;;;20.75;20.75;;;;;24.64;48.57;101123.78;5082296;28;45349;-50
2021/09/05 01:55:40;;;;;;;;;21.00;20.00;;;;;24.62;48.78;101128.38;5080817;28;45276;-50
2021/09/05 01:58:06;;;;;;;;;23.75;21.25;;;;;24.60;48.38;101124.94;5082163;28;45223;-51
2021/09/05 02:00:31;;;;;;;;;26.00;25.75;;;;;24.60;48.89;101126.75;5082356;28;45527;-45
2021/09/05 02:02:56;;;;;;;;;23.50;22.50;;;;;24.59;48.65;101141.13;5077967;28;45319;-48
2021/09/05 02:05:22;;;;;;;;;23.00;20.50;;;;;24.58;48.71;101134.03;5067868;28;47248;-50
2021/09/05 02:07:47;;;;;;;;;21.75;20.50;;;;;24.57;48.84;101135.03;5061790;28;45252;-46
2021/09/05 02:10:13;;;;;;;;;25.25;22.25;;;;;24.56;48.66;101131.47;5061956;28;45282;-48
2021/09/05 02:12:38;;;;;;;;;24.25;21.75;;;;;24.55;48.63;101140.47;5061276;28;45490;-50
2021/09/05 02:15:04;;;;;;;;;20.50;20.00;;;;;24.55;48.50;101145.00;5061700;28;46033;-47
2021/09/05 02:17:29;;;;;;;;;23.25;21.25;;;;;24.54;48.53;101140.59;5061563;28;45335;-49
2021/09/05 02:19:54;;;;;;;;;19.25;18.75;;;;;24.53;48.71;101147.78;5061758;28;45355;-50
2021/09/05 02:22:21;;;;;;;;;23.75;21.00;;;;;24.52;48.54;101142.53;5061329;28;45386;-50
2021/09/05 02:24:46;;;;;;;;;18.00;17.50;;;;;24.50;48.38;101138.13;5060106;28;46564;-47
2021/09/05 02:27:11;;;;;;;;;20.75;20.00;;;;;24.50;48.66;101140.81;5060930;28;45238;-49
2021/09/05 02:29:37;;;;;;;;;16.50;16.50;;;;;24.47;49.05;101141.00;5061266;28;45388;-46
2021/09/05 02:32:02;;;;;;;;;19.25;18.25;;;;;24.46;48.82;101139.25;5060702;28;45598;-51
2021/09/05 02:34:28;;;;;;;;;24.25;19.75;;;;;24.45;48.85;101136.69;5061423;28;45260;-47
2021/09/05 02:36:53;;;;;;;;;23.75;20.00;;;;;24.44;48.81;101132.28;5061303;28;45177;-50
2021/09/05 02:39:18;;;;;;;;;21.50;17.75;;;;;24.43;48.83;101144.84;5061428;28;45284;-47
2021/09/05 02:41:44;;;;;;;;;19.00;19.00;;;;;24.42;48.73;101139.59;5064109;28;45490;-47
2021/09/05 02:44:09;;;;;;;;;22.50;18.25;;;;;24.41;48.96;101143.25;5081465;28;46001;-47
2021/09/05 02:46:34;;;;;;;;;20.50;19.50;;;;;24.41;48.68;101141.41;5081523;28;45187;-48
2021/09/05 02:49:00;;;;;;;;;19.75;19.75;;;;;24.39;49.22;101142.47;5080227;28;45253;-50
2021/09/05 02:51:25;;;;;;;;;21.75;20.00;;;;;24.37;48.87;101139.88;5081427;28;45485;-51
2021/09/05 02:53:50;;;;;;;;;19.25;17.25;;;;;24.33;48.91;101139.22;5081446;28;46237;-47
2021/09/05 02:56:16;;;;;;;;;19.25;19.25;;;;;24.31;48.96;101138.50;5066011;28;45198;-46
2021/09/05 02:58:41;;;;;;;;;19.50;18.25;;;;;24.31;49.00;101148.34;5081486;28;45493;-49
2021/09/05 03:01:07;;;;;;;;;20.00;19.00;;;;;24.26;48.98;101140.59;5081123;28;45315;-47
2021/09/05 03:03:32;;;;;;;;;16.50;16.50;;;;;24.26;49.27;101142.41;5071974;27;45307;-47
2021/09/05 03:05:58;;;;;;;;;18.00;18.00;;;;;24.25;48.91;101138.88;5060665;28;45426;-50
2021/09/05 03:08:23;;;;;;;;;17.75;16.75;;;;;24.25;49.12;101144.25;5061126;28;45407;-50
2021/09/05 03:10:48;;;;;;;;;21.50;18.25;;;;;24.25;48.84;101149.63;5072021;28;45304;-50
2021/09/05 03:13:14;;;;;;;;;18.00;16.75;;;;;24.24;48.69;101144.34;5060741;28;46102;-51
2021/09/05 03:15:39;;;;;;;;;23.00;22.00;;;;;24.22;48.82;101144.44;5060651;28;45327;-50
2021/09/05 03:18:05;;;;;;;;;19.50;19.00;;;;;24.22;49.00;101139.06;5060970;28;45380;-51
2021/09/05 03:20:30;;;;;;;;;21.75;20.50;;;;;24.20;49.01;101141.03;5060499;28;45446;-50
2021/09/05 03:22:55;;;;;;;;;18.50;18.00;;;;;24.21;49.00;101148.09;5060610;28;45288;-49
2021/09/05 03:25:21;;;;;;;;;20.25;18.00;;;;;24.20;48.90;101140.13;5060455;28;45490;-48
2021/09/05 03:27:46;;;;;;;;;20.25;17.75;;;;;24.20;48.70;101137.47;5060609;28;45622;-47
2021/09/05 03:30:12;;;;;;;;;18.50;18.50;;;;;24.20;48.85;101135.66;5060390;28;45209;-51
2021/09/05 03:32:37;;;;;;;;;17.25;16.50;;;;;24.19;49.13;101136.59;5060577;28;45384;-50
2021/09/05 03:35:03;;;;;;;;;15.00;12.75;;;;;24.18;48.93;101141.09;5060382;28;45461;-50
2021/09/05 03:37:28;;;;;;;;;15.00;14.50;;;;;24.18;48.86;101135.72;5060438;28;45239;-47
2021/09/05 03:39:54;;;;;;;;;21.75;18.25;;;;;24.16;49.33;101124.25;5060245;28;45224;-49
2021/09/05 03:42:19;;;;;;;;;20.00;20.00;;;;;24.17;49.15;101131.31;5067870;28;46125;-48
2021/09/05 03:44:45;;;;;;;;;16.50;15.50;;;;;24.17;49.07;101125.09;5080528;28;45528;-51
2021/09/05 03:47:10;;;;;;;;;19.25;18.75;;;;;24.16;48.73;101126.94;5080769;28;45227;-47
2021/09/05 03:49:36;;;;;;;;;19.00;16.75;;;;;24.16;48.75;101129.63;5080488;28;45156;-49
2021/09/05 03:52:01;;;;;;;;;17.50;17.00;;;;;24.14;48.89;101125.31;5080429;28;45157;-46
2021/09/05 03:54:26;;;;;;;;;18.50;17.50;;;;;24.16;49.11;101128.75;5080491;28;45389;-50
2021/09/05 03:56:52;;;;;;;;;21.75;18.50;;;;;24.16;49.06;101134.09;5080322;28;45396;-47
2021/09/05 03:59:17;;;;;;;;;17.25;16.50;;;;;24.15;48.66;101132.38;5080498;28;45336;-48
2021/09/05 04:01:42;;;;;;;;;15.75;15.00;;;;;24.14;48.82;101133.38;5080216;27;45414;-48
2021/09/05 04:04:08;;;;;;;;;18.50;17.50;;;;;24.13;48.85;101135.16;5065449;28;45421;-46
2021/09/05 04:06:33;;;;;;;;;18.75;18.00;;;;;24.13;48.89;101134.31;5060228;28;45842;-47
2021/09/05 04:09:08;;;;;;;;;17.25;15.75;;;;;24.11;48.89;101131.75;5059997;28;45257;-49
2021/09/05 04:11:34;;;;;;;;;18.25;17.50;;;;;24.11;48.91;101130.88;5059632;28;47181;-48
2021/09/05 04:13:59;;;;;;;;;19.00;17.00;;;;;24.10;48.69;101134.50;5059521;28;45334;-49
2021/09/05 04:16:24;;;;;;;;;19.00;17.50;;;;;24.10;48.87;101134.50;5060167;28;45326;-47
2021/09/05 04:18:50;;;;;;;;;14.25;14.00;;;;;24.10;48.84;101139.88;5059814;28;45514;-49
2021/09/05 04:21:15;;;;;;;;;17.75;16.75;;;;;24.09;48.94;101144.41;5059780;28;46194;-52
2021/09/05 04:23:40;;;;;;;;;14.75;14.75;;;;;24.09;48.59;101149.75;5059756;28;45429;-47
2021/09/05 04:26:06;;;;;;;;;18.00;15.00;;;;;24.08;48.93;101145.34;5066673;28;45488;-47
2021/09/05 04:28:31;;;;;;;;;15.25;14.00;;;;;24.08;48.89;101149.88;5065230;28;45614;-48
2021/09/05 04:30:56;;;;;;;;;22.25;17.75;;;;;24.07;48.75;101149.00;5059557;28;46995;-46
2021/09/05 04:33:22;;;;;;;;;14.75;14.00;;;;;24.06;48.59;101143.72;5059841;28;45195;-48
2021/09/05 04:35:47;;;;;;;;;17.25;17.25;;;;;24.06;48.91;101149.09;5058498;28;45170;-48
2021/09/05 04:38:13;;;;;;;;;15.50;15.50;;;;;24.04;49.11;101154.56;5059502;28;45203;-49
2021/09/05 04:40:38;;;;;;;;;12.00;12.00;;;;;24.04;49.17;101156.38;5059264;28;46007;-47
2021/09/05 04:43:03;;;;;;;;;17.75;17.75;;;;;24.03;48.77;101155.53;5073766;28;45176;-51
2021/09/05 04:45:29;;;;;;;;;19.00;17.25;;;;;24.01;48.84;101157.44;5080101;28;45215;-49
2021/09/05 04:47:54;;;;;;;;;19.75;18.00;;;;;24.00;49.04;101158.41;5079740;28;45551;-46
2021/09/05 04:50:19;;;;;;;;;18.25;17.50;;;;;23.95;49.15;101153.34;5079602;28;46279;-50
2021/09/05 04:52:45;;;;;;;;;16.00;16.00;;;;;23.97;48.89;101167.50;5079717;28;45202;-51
2021/09/05 04:55:10;;;;;;;;;19.50;17.75;;;;;23.94;48.98;101162.34;5082943;28;45150;-47
2021/09/05 04:57:35;;;;;;;;;17.75;17.75;;;;;23.92;48.82;101166.94;5081738;28;45281;-45
2021/09/05 05:00:01;;;;;;;;;18.00;16.00;;;;;23.91;48.91;101164.31;5081879;28;46882;-49
2021/09/05 05:02:26;;;;;;;;;15.75;15.75;;;;;23.88;48.65;101176.13;5083000;28;45526;-48
2021/09/05 05:04:51;;;;;;;;;15.50;14.00;;;;;23.86;48.89;101178.03;5063000;28;45375;-46
2021/09/05 05:07:17;;;;;;;;;16.25;15.75;;;;;23.84;49.20;101178.13;5062868;28;45291;-46
2021/09/05 05:09:45;;;;;;;;;15.50;15.50;;;;;23.84;49.18;101179.97;5062831;28;46091;-48
2021/09/05 05:12:13;;;;;;;;;15.50;13.00;;;;;23.82;48.98;101181.88;5062303;28;45326;-48
2021/09/05 05:14:39;;;;;;;;;16.50;13.25;;;;;23.82;49.06;101185.44;5062808;28;45217;-50
2021/09/05 05:17:05;;;;;;;;;16.00;16.00;;;;;23.80;48.74;101190.03;5062600;28;45390;-47
2021/09/05 05:19:30;;;;;;;;;16.00;16.00;;;;;23.79;49.14;101193.66;5062474;28;46119;-45
2021/09/05 05:21:55;;;;;;;;;17.50;15.50;;;;;23.78;48.86;101196.44;5075006;28;45201;-49
2021/09/05 05:24:21;;;;;;;;;17.25;15.75;;;;;23.76;48.80;101204.59;5062370;28;45304;-47
2021/09/05 05:26:46;;;;;;;;;19.00;17.25;;;;;23.75;48.73;101205.56;5062205;28;45304;-50
2021/09/05 05:29:11;;;;;;;;;17.50;15.00;;;;;23.74;48.73;101208.34;5062475;28;45327;-47
2021/09/05 05:31:37;;;;;;;;;19.50;15.25;;;;;23.72;48.82;101210.25;5062339;28;45327;-49
2021/09/05 05:34:02;;;;;;;;;15.50;15.00;;;;;23.70;48.73;101213.88;5062480;28;45305;-47
2021/09/05 05:36:27;;;;;;;;;14.50;14.50;;;;;23.68;48.78;101215.81;5062295;28;45485;-49
2021/09/05 05:38:53;;;;;;;;;15.50;14.00;;;;;23.68;48.61;101221.19;5062216;28;46091;-47
2021/09/05 05:41:19;;;;;;;;;17.00;15.00;;;;;23.66;48.78;101216.84;5070659;28;45414;-46
2021/09/05 05:43:44;;;;;;;;;13.00;12.25;;;;;23.62;48.67;101207.25;5082370;28;45273;-49
2021/09/05 05:46:10;;;;;;;;;14.75;14.50;;;;;23.61;48.85;101213.56;5082426;28;45319;-48
2021/09/05 05:48:35;;;;;;;;;12.50;12.50;;;;;23.59;48.88;101215.50;5080893;28;46392;-49
2021/09/05 05:51:01;;;;;;;;;15.00;13.25;;;;;23.56;48.91;101215.69;5082514;28;45244;-49
2021/09/05 05:53:26;;;;;;;;;13.50;13.50;;;;;23.52;48.90;101220.38;5082475;28;45382;-47
2021/09/05 05:55:51;;;;;;;;;14.50;13.75;;;;;23.48;48.80;101213.47;5082208;28;45493;-51
2021/09/05 05:58:17;;;;;;;;;13.75;13.75;;;;;23.52;48.87;101220.38;5082016;28;46649;-46
2021/09/05 06:00:43;;;;;;;;;15.75;13.50;;;;;23.51;48.86;101216.84;5082191;28;45302;-46
2021/09/05 06:03:09;;;;;;;;;14.50;13.75;;;;;23.48;48.89;101221.53;5076866;28;45387;-49
2021/09/05 06:05:35;;;;;;;;;14.50;14.25;;;;;23.49;49.10;101228.63;5060517;28;45408;-48
2021/09/05 06:08:02;;;;;;;;;11.75;11.50;;;;;23.47;49.01;101220.69;5061522;28;46910;-45
2021/09/05 06:10:28;;;;;;;;;14.25;12.50;;;;;23.47;49.05;101222.47;5069764;28;45724;-46
2021/09/05 06:12:53;;;;;;;;;14.00;14.00;;;;;23.46;49.12;101227.00;5061579;28;45355;-49
2021/09/05 06:15:19;;;;;;;;;16.75;15.25;;;;;23.44;48.79;101228.03;5061730;28;45473;-46
2021/09/05 06:17:44;;;;;;;;;14.50;14.50;;;;;23.45;49.02;101236.00;5061442;28;46029;-50
2021/09/05 06:20:10;;;;;;;;;15.75;14.75;;;;;23.43;48.90;101239.72;5061480;28;45370;-51
2021/09/05 06:22:35;;;;;;;;;16.25;15.50;;;;;23.43;49.09;101243.25;5061537;28;45474;-52
2021/09/05 06:25:01;;;;;;;;;15.75;14.50;;;;;23.43;48.94;101247.75;5061601;28;45261;-57
2021/09/05 06:27:26;;;;;;;;;13.75;13.75;;;;;23.44;49.05;101236.09;5075307;28;48291;-60
2021/09/05 06:29:51;;;;;;;;;17.00;17.00;;;;;23.43;48.90;101248.63;5061544;28;45290;-60
2021/09/05 06:32:17;;;;;;;;;19.75;16.50;;;;;23.44;49.04;101247.66;5061511;28;45386;-60
2021/09/05 06:34:42;;;;;;;;;15.50;14.75;;;;;23.45;49.29;101256.59;5061416;28;45514;-60
2021/09/05 06:37:07;;;;;;;;;15.00;14.00;;;;;23.45;48.83;101268.16;5061237;28;45228;-61
2021/09/05 06:39:33;;;;;;;;;16.75;15.50;;;;;23.47;49.19;101262.69;5061164;28;45293;-63
2021/09/05 06:41:59;;;;;;;;;17.50;15.50;;;;;23.48;49.32;101264.44;5067205;28;45437;-59
2021/09/05 06:44:24;;;;;;;;;22.25;19.25;;;;;23.50;49.02;101275.94;5076116;27;45575;-60
2021/09/05 06:46:50;;;;;;;;;16.25;16.00;;;;;23.49;49.14;101271.53;5070608;27;46109;-57
2021/09/05 06:49:15;;;;;;;;;19.50;18.75;;;;;23.51;49.10;101278.53;5075532;27;45238;-55
2021/09/05 06:51:41;;;;;;;;;19.00;18.00;;;;;23.52;49.28;101279.38;5068061;28;45249;-58
2021/09/05 06:54:06;;;;;;;;;22.25;21.50;;;;;23.52;49.28;101277.56;5073107;28;45939;-59
2021/09/05 06:56:31;;;;;;;;;21.50;20.00;;;;;23.50;49.21;101278.63;5074763;27;45531;-61
2021/09/05 06:58:57;;;;;;;;;18.25;18.25;;;;;23.52;49.21;101282.94;5073241;27;45402;-57
2021/09/05 07:01:22;;;;;;;;;22.50;21.50;;;;;23.53;49.32;101286.47;5077602;27;45308;-58
2021/09/05 07:03:47;;;;;;;;;18.00;18.00;;;;;23.50;49.53;101278.63;5071730;27;45321;-57
2021/09/05 07:06:13;;;;;;;;;19.75;19.50;;;;;23.50;49.53;101286.66;5073415;27;45644;-56
2021/09/05 07:08:38;;;;;;;;;19.00;18.00;;;;;23.49;49.16;101295.66;5077255;28;45913;-58
2021/09/05 07:11:03;;;;;;;;;21.00;20.00;;;;;23.50;49.41;101292.88;5072562;27;45753;-59
2021/09/05 07:13:29;;;;;;;;;21.75;19.00;;;;;23.52;49.33;101292.78;5073706;28;45685;-58
2021/09/05 07:15:54;;;;;;;;;17.50;17.25;;;;;23.56;49.38;101297.03;5075441;28;46827;-59
2021/09/05 07:18:23;;;;;;;;;20.75;17.75;;;;;23.57;49.08;101298.75;5076926;27;45457;-62
2021/09/05 07:20:48;;;;;;;;;21.50;17.75;;;;;23.60;49.41;101300.41;5077701;27;45474;-58
2021/09/05 07:23:14;;;;;;;;;18.50;16.50;;;;;23.63;49.27;101303.72;5078013;27;45373;-58
2021/09/05 07:25:39;;;;;;;;;21.50;18.25;;;;;23.66;48.95;101308.94;5073099;27;45301;-62
2021/09/05 07:28:04;;;;;;;;;18.00;17.00;;;;;23.69;49.13;101305.19;5074845;28;45325;-58
2021/09/05 07:30:30;;;;;;;;;18.00;17.25;;;;;23.70;49.41;101302.41;5072785;27;45225;-58
2021/09/05 07:32:55;;;;;;;;;16.75;15.00;;;;;23.76;49.18;101313.72;5073933;28;45361;-59
2021/09/05 07:35:20;;;;;;;;;20.25;19.00;;;;;23.78;49.16;101307.31;5074446;27;45443;-61
2021/09/05 07:37:47;;;;;;;;;20.50;18.75;;;;;23.80;49.16;101304.56;5073696;27;45243;-50
2021/09/05 07:40:14;;;;;;;;;17.00;15.75;;;;;23.81;49.28;101304.44;5069492;28;45445;-48
2021/09/05 07:42:40;;;;;;;;;16.25;16.25;;;;;23.86;49.32;101313.06;5079399;27;45277;-51
2021/09/05 07:45:05;;;;;;;;;20.75;18.25;;;;;23.90;48.93;101318.25;5076087;27;45523;-59
2021/09/05 07:47:31;;;;;;;;;16.25;15.25;;;;;23.91;49.14;101323.56;5073700;27;45463;-53
2021/09/05 07:49:57;;;;;;;;;20.00;17.00;;;;;23.96;49.09;101324.16;5075247;27;45476;-56
2021/09/05 07:52:22;;;;;;;;;20.00;17.75;;;;;23.99;49.01;101321.25;5072083;28;45771;-47
2021/09/05 07:54:48;;;;;;;;;17.25;15.75;;;;;24.03;49.11;101327.31;5074075;27;45336;-49
2021/09/05 07:57:13;;;;;;;;;19.25;17.00;;;;;24.05;49.11;101321.84;5069492;28;45445;-49
2021/09/05 07:59:38;;;;;;;;;16.25;15.50;;;;;24.07;48.91;101326.16;5072138;28;45394;-49
2021/09/05 08:02:04;;;;;;;;;15.50;14.25;;;;;24.10;49.12;101327.78;5075377;28;45373;-48
2021/09/05 08:04:29;;;;;;;;;17.25;16.00;;;;;24.11;48.97;101321.44;5071518;27;46013;-50
2021/09/05 08:06:54;;;;;;;;;19.75;17.75;;;;;24.14;49.09;101332.88;5073134;28;45333;-50
2021/09/05 08:09:20;;;;;;;;;17.00;17.00;;;;;24.17;48.68;101334.50;5073553;27;45287;-48
2021/09/05 08:11:45;;;;;;;;;14.25;14.25;;;;;24.20;49.06;101338.81;5074153;28;45325;-46
2021/09/05 08:14:11;;;;;;;;;17.25;16.00;;;;;24.22;48.91;101344.97;5071123;27;46231;-47
2021/09/05 08:16:38;;;;;;;;;14.50;14.50;;;;;24.24;48.65;101341.22;5072189;28;45458;-48
2021/09/05 08:19:04;;;;;;;;;16.00;15.00;;;;;24.26;49.10;101350.03;5075139;28;45348;-49
2021/09/05 08:21:29;;;;;;;;;15.75;15.75;;;;;24.29;49.02;101349.84;5072236;27;45550;-46
2021/09/05 08:23:55;;;;;;;;;16.50;14.50;;;;;24.33;48.96;101346.00;5072528;28;46174;-50
2021/09/05 08:26:20;;;;;;;;;14.75;14.75;;;;;24.36;48.98;101349.47;5076775;28;45542;-47
2021/09/05 08:28:46;;;;;;;;;15.00;14.00;;;;;24.39;49.10;101351.94;5075086;27;45335;-51
2021/09/05 08:31:12;;;;;;;;;13.25;12.75;;;;;24.40;48.74;101356.34;5072363;28;45231;-46
2021/09/05 08:33:37;;;;;;;;;20.00;18.25;;;;;24.39;48.92;101343.88;5076753;27;46929;-50
2021/09/05 08:36:03;;;;;;;;;15.25;14.00;;;;;24.47;49.10;101360.38;5079030;28;45172;-47
2021/09/05 08:38:29;;;;;;;;;13.25;13.25;;;;;24.54;49.16;101363.53;5071177;27;45326;-49
2021/09/05 08:40:55;;;;;;;;;15.00;13.50;;;;;24.54;48.45;101353.69;5075541;28;45325;-48
2021/09/05 08:43:21;;;;;;;;;16.00;14.50;;;;;24.59;48.78;101359.63;5063002;27;46350;-46
2021/09/05 08:45:48;;;;;;;;;14.75;13.00;;;;;24.63;49.16;101358.44;5061463;28;45344;-45
2021/09/05 08:48:16;;;;;;;;;12.00;12.00;;;;;24.66;48.65;101358.28;5062489;28;45386;-46
2021/09/05 08:50:43;;;;;;;;;13.75;13.75;;;;;24.71;48.77;101359.81;5061491;28;45379;-51
2021/09/05 08:53:09;;;;;;;;;14.75;13.75;;;;;24.74;49.07;101360.50;5062319;28;46144;-48
2021/09/05 08:55:35;;;;;;;;;12.50;12.50;;;;;24.81;49.19;101360.94;5062281;28;45333;-49
2021/09/05 08:58:01;;;;;;;;;14.00;12.50;;;;;24.85;48.90;101365.16;5075709;28;45337;-50
2021/09/05 09:00:27;;;;;;;;;12.25;12.25;;;;;24.89;48.65;101364.00;5062730;28;45488;-47
2021/09/05 09:02:54;;;;;;;;;15.50;12.25;;;;;24.96;49.07;101367.16;5075006;28;45703;-49
2021/09/05 09:05:40;;;;;;;;;12.25;12.25;;;;;25.03;49.10;101365.81;5073721;28;45307;-48
2021/09/05 09:08:07;;;;;;;;;14.50;14.25;;;;;25.09;49.03;101365.41;5083178;28;45369;-49
2021/09/05 09:10:44;;;;;;;;;15.25;13.25;;;;;25.15;48.62;101370.34;5082539;28;45477;-47
2021/09/05 09:13:35;;;;;;;;;16.75;13.00;;;;;25.23;48.50;101368.97;5082700;28;45303;-49
2021/09/05 09:16:06;;;;;;;;;14.50;14.50;;;;;25.29;48.67;101361.34;5082780;28;45318;-48
2021/09/05 09:18:33;;;;;;;;;14.25;13.25;;;;;25.39;48.50;101368.88;5083022;28;45240;-51
2021/09/05 09:21:01;;;;;;;;;11.25;11.25;;;;;25.44;48.61;101361.34;5082599;28;45435;-48
2021/09/05 09:23:32;;;;;;;;;12.75;12.25;;;;;25.53;48.39;101368.78;5081873;28;45326;-48
2021/09/05 09:26:04;;;;;;;;;15.00;14.00;;;;;25.62;48.79;101369.97;5081563;28;45328;-48
2021/09/05 09:28:36;;;;;;;;;13.50;13.50;;;;;25.70;49.16;101374.84;5081479;28;45337;-49
2021/09/05 09:31:24;;;;;;;;;17.00;15.25;;;;;25.78;48.28;101373.34;5081502;28;45398;-47
2021/09/05 09:33:55;;;;;;;;;16.00;14.50;;;;;25.88;48.35;101370.03;5081298;28;46973;-51
2021/09/05 09:36:22;;;;;;;;;12.25;12.25;;;;;25.96;48.40;101370.34;5080212;28;45487;-50
2021/09/05 09:38:57;;;;;;;;;14.00;12.25;;;;;26.07;48.14;101375.03;5069749;28;45299;-45
2021/09/05 09:41:31;;;;;;;;;13.25;12.50;;;;;26.14;48.61;101370.94;5060836;28;45363;-47
2021/09/05 09:43:57;;;;;;;;;12.00;12.00;;;;;26.25;48.42;101376.44;5081251;28;45349;-49
2021/09/05 09:46:25;;;;;;;;;14.00;14.00;;;;;26.35;48.34;101370.38;5081103;28;45169;-52
2021/09/05 09:48:53;;;;;;;;;16.00;16.00;;;;;26.45;48.40;101368.75;5081293;28;45302;-49
2021/09/05 09:51:19;;;;;;;;;15.50;14.25;;;;;26.56;48.06;101368.00;5081039;28;45440;-51
2021/09/05 09:53:47;;;;;;;;;17.50;17.50;;;;;26.67;47.80;101376.16;5081166;28;45984;-52
2021/09/05 09:56:16;;;;;;;;;13.25;13.25;;;;;26.77;48.37;101362.91;5080764;28;45242;-47
2021/09/05 09:58:46;;;;;;;;;15.25;14.00;;;;;26.89;48.33;101371.91;5070047;28;45350;-50
2021/09/05 10:01:19;;;;;;;;;15.00;15.00;;;;;27.01;47.71;101380.94;5077573;28;45335;-46
2021/09/05 10:03:47;;;;;;;;;12.50;12.25;;;;;27.13;47.41;101371.06;5069237;27;45320;-47
2021/09/05 10:06:13;;;;;;;;;12.00;12.00;;;;;27.22;47.95;101373.94;5060366;28;45521;-46
2021/09/05 10:08:41;;;;;;;;;15.50;12.25;;;;;27.37;47.78;101377.34;5060737;28;45302;-46
2021/09/05 10:11:09;;;;;;;;;16.25;15.50;;;;;27.50;47.40;101369.19;5064450;28;45384;-47
2021/09/05 10:13:38;;;;;;;;;13.75;12.50;;;;;27.61;47.11;101370.19;5069990;28;46434;-45
2021/09/05 10:16:04;;;;;;;;;10.75;10.75;;;;;27.70;47.46;101367.66;5073782;28;45718;-47
2021/09/05 10:18:33;;;;;;;;;16.25;13.75;;;;;27.80;46.98;101367.81;5071236;28;45362;-46
2021/09/05 10:20:59;;;;;;;;;12.25;12.25;;;;;27.93;47.29;101361.47;5069901;27;45389;-47
2021/09/05 10:23:32;;;;;;;;;12.00;12.00;;;;;28.07;47.02;101371.22;5031221;28;1331149;-46
2021/09/05 10:26:12;;;;;;;;;11.75;11.50;;;;;28.20;46.78;101367.41;5067496;28;45748;-46
2021/09/05 10:28:43;;;;;;;;;14.25;12.50;;;;;28.34;47.15;101355.50;5068586;28;45350;-48
2021/09/05 10:31:11;;;;;;;;;15.75;15.75;;;;;28.50;46.79;101363.25;5071845;28;45556;-47
2021/09/05 10:33:39;;;;;;;;;13.00;13.00;;;;;28.67;46.73;101363.75;5075559;28;46283;-46
2021/09/05 10:36:09;;;;;;;;;15.50;14.25;;;;;28.86;46.87;101363.09;5074879;28;45453;-50
2021/09/05 10:38:36;;;;;;;;;12.75;12.25;;;;;29.01;46.58;101367.22;5074569;28;45376;-48
2021/09/05 10:41:22;;;;;;;;;17.50;15.00;;;;;29.28;46.75;101362.34;5076353;28;45553;-50
2021/09/05 10:43:47;;;;;;;;;13.00;13.00;;;;;29.48;46.62;101364.28;5055559;28;46525;-52
2021/09/05 10:46:17;;;;;;;;;19.00;18.00;;;;;29.72;46.39;101360.41;5069106;28;45311;-51
2021/09/05 10:48:46;;;;;;;;;11.00;11.00;;;;;29.97;45.93;101359.22;5059143;28;45373;-45
2021/09/05 10:51:24;;;;;;;;;12.75;12.00;;;;;30.28;46.37;101359.22;5069993;28;45546;-47
2021/09/05 10:53:54;;;;;;;;;14.25;14.25;;;;;30.61;46.14;101361.78;5059579;28;46072;-51
2021/09/05 10:56:24;;;;;;;;;14.50;14.50;;;;;30.95;45.77;101361.44;5060572;28;45439;-50
2021/09/05 10:58:52;;;;;;;;;18.25;18.00;;;;;31.29;45.63;101358.34;5060865;28;45458;-50
2021/09/05 11:01:17;;;;;;;;;11.50;10.50;;;;;31.67;45.23;101356.63;5063125;28;45323;-48
2021/09/05 11:04:11;;;;;;;;;12.00;10.50;;;;;32.12;46.12;101349.66;5076130;28;46165;-48
2021/09/05 11:07:04;;;;;;;;;13.00;12.00;;;;;32.63;45.62;101346.56;5076338;27;45279;-52